Time;durP1;ratioP1;P1;durP2;ratioP2;P2;SDS_P1;SDS_P2;PMS_P1;PMS_P2;Temp;Humidity;BMP_temperature;BMP_pressure;BME280_temperature;BME280_humidity;BME280_pressure;Samples;Min_cycle;Max_cycle;Signal;HPM_P1;HPM_P2
2022/01/21 00:00:41;;;;;;;15.20;2.20;;;1.30;99.90;;;;;;5053142;28;20488;-73
2022/01/21 00:03:06;;;;;;;11.70;2.15;;;1.30;99.90;;;;;;5055738;28;20040;-73
2022/01/21 00:05:32;;;;;;;10.60;2.38;;;1.30;99.90;;;;;;5073629;28;20036;-74
2022/01/21 00:07:57;;;;;;;15.88;2.75;;;1.30;99.90;;;;;;5056035;28;20082;-73
2022/01/21 00:10:23;;;;;;;14.70;1.98;;;1.20;99.90;;;;;;5055567;28;20048;-73
2022/01/21 00:12:52;;;;;;;9.80;2.25;;;1.20;99.90;;;;;;5055136;28;20689;-73
2022/01/21 00:15:18;;;;;;;15.07;2.50;;;1.20;99.90;;;;;;5055058;28;20458;-73
2022/01/21 00:17:43;;;;;;;13.25;2.67;;;1.20;99.90;;;;;;5054777;28;20089;-72
2022/01/21 00:31:05;;;;;;;9.15;2.08;;;1.60;99.90;;;;;;5048231;28;20175;-73
2022/01/21 00:33:31;;;;;;;20.70;3.00;;;1.70;99.90;;;;;;5051812;28;20131;-73
2022/01/21 00:35:58;;;;;;;9.55;2.30;;;2.10;99.90;;;;;;5054940;28;20414;-73
2022/01/21 00:38:25;;;;;;;13.63;2.45;;;2.30;99.90;;;;;;5051752;28;20060;-73
2022/01/21 00:40:51;;;;;;;13.88;2.35;;;2.40;99.90;;;;;;5052257;28;20111;-73
2022/01/21 00:43:28;;;;;;;14.57;2.08;;;2.50;99.90;;;;;;5051505;28;20557;-73
2022/01/21 00:45:54;;;;;;;10.68;2.15;;;2.50;99.90;;;;;;5050822;28;20044;-73
2022/01/21 00:48:19;;;;;;;16.23;2.30;;;2.50;99.90;;;;;;5053131;28;20043;-73
2022/01/21 00:50:47;;;;;;;14.48;2.03;;;2.40;99.90;;;;;;5071486;28;20048;-73
2022/01/21 00:53:13;;;;;;;14.18;2.17;;;2.40;99.90;;;;;;5054994;28;20123;-73
2022/01/21 00:55:39;;;;;;;20.08;3.28;;;2.40;99.90;;;;;;5038244;28;20036;-73
2022/01/21 00:58:05;;;;;;;10.93;1.75;;;2.50;99.90;;;;;;5038162;28;20047;-73
2022/01/21 01:00:31;;;;;;;17.08;3.03;;;2.50;99.90;;;;;;5037163;28;20032;-74
2022/01/21 01:02:57;;;;;;;16.30;2.50;;;2.50;99.90;;;;;;5055135;28;20040;-73
2022/01/21 01:05:23;;;;;;;15.75;2.83;;;2.40;99.90;;;;;;5037760;28;20115;-73
2022/01/21 01:07:49;;;;;;;16.27;2.25;;;2.30;99.90;;;;;;5069452;28;20040;-73
2022/01/21 01:10:23;;;;;;;12.88;1.92;;;2.30;99.90;;;;;;5025450;28;20040;-73
2022/01/21 01:13:01;;;;;;;14.88;2.60;;;2.20;99.90;;;;;;5055153;28;20036;-73
2022/01/21 01:20:55;;;;;;;15.82;2.05;;;2.10;99.90;;;;;;5053979;28;20041;-73
2022/01/21 01:28:33;;;;;;;10.68;1.85;;;2.10;99.90;;;;;;5052627;28;20044;-73
2022/01/21 01:30:59;;;;;;;11.70;1.95;;;2.10;99.90;;;;;;5037697;28;20040;-73
2022/01/21 01:33:33;;;;;;;10.93;2.17;;;2.20;99.90;;;;;;5053981;28;20040;-73
2022/01/21 01:35:59;;;;;;;10.30;1.58;;;2.20;99.90;;;;;;5052956;28;20393;-73
2022/01/21 01:38:57;;;;;;;12.02;1.73;;;2.30;99.90;;;;;;5052544;28;20037;-73
2022/01/21 01:41:22;;;;;;;12.45;2.00;;;2.30;99.90;;;;;;5050566;28;20047;-73
2022/01/21 01:51:54;;;;;;;9.10;1.35;;;2.50;99.90;;;;;;5053037;28;20098;-73
2022/01/21 01:54:20;;;;;;;10.70;2.15;;;2.50;99.90;;;;;;5053231;28;20032;-73
2022/01/21 01:56:51;;;;;;;13.65;2.53;;;2.60;99.90;;;;;;5048242;28;20547;-73
2022/01/21 01:59:17;;;;;;;9.85;1.73;;;2.60;99.90;;;;;;5053631;28;20386;-73
2022/01/21 02:01:49;;;;;;;10.23;2.10;;;2.60;99.90;;;;;;5053828;28;20037;-73
2022/01/21 02:04:14;;;;;;;9.63;1.50;;;2.60;99.90;;;;;;5038945;28;20052;-73
2022/01/21 02:06:40;;;;;;;8.45;1.77;;;2.60;99.90;;;;;;5067413;28;20406;-73
2022/01/21 02:09:06;;;;;;;14.35;1.90;;;2.50;99.90;;;;;;5053808;28;20097;-73
2022/01/21 02:11:31;;;;;;;9.40;2.22;;;2.40;99.90;;;;;;5053435;28;20036;-73
2022/01/21 02:14:00;;;;;;;8.85;1.70;;;2.50;99.90;;;;;;5052403;28;20045;-73
2022/01/21 02:21:40;;;;;;;9.65;1.67;;;2.50;99.90;;;;;;5051479;28;20087;-73
2022/01/21 02:24:13;;;;;;;11.98;1.50;;;2.60;99.90;;;;;;5052709;28;20127;-73
2022/01/21 02:26:39;;;;;;;7.47;1.25;;;2.60;99.90;;;;;;5027555;28;20478;-73
2022/01/21 02:29:06;;;;;;;8.85;1.05;;;2.70;99.90;;;;;;5035674;28;20076;-73
2022/01/21 02:31:33;;;;;;;8.02;1.30;;;2.80;99.90;;;;;;5053392;28;20490;-73
2022/01/21 02:33:59;;;;;;;9.25;1.83;;;2.70;99.90;;;;;;5036968;28;20036;-73
2022/01/21 02:36:26;;;;;;;6.38;1.58;;;2.80;99.90;;;;;;5036428;28;20648;-73
2022/01/21 02:38:51;;;;;;;11.55;1.35;;;2.70;99.90;;;;;;5052629;28;20048;-73
2022/01/21 02:41:17;;;;;;;10.50;1.38;;;2.60;99.90;;;;;;5051709;28;20089;-73
2022/01/21 02:43:43;;;;;;;10.07;1.60;;;2.50;99.90;;;;;;5051979;28;20028;-73
2022/01/21 02:46:10;;;;;;;9.55;1.25;;;2.40;99.90;;;;;;5034579;28;20177;-73
2022/01/21 02:48:39;;;;;;;10.60;1.55;;;2.30;99.90;;;;;;5052785;28;20051;-73
2022/01/21 02:51:07;;;;;;;5.72;1.20;;;2.20;99.90;;;;;;5052842;28;20044;-73
2022/01/21 02:56:11;;;;;;;5.13;1.10;;;2.10;99.90;;;;;;5052986;28;20056;-73
2022/01/21 02:58:38;;;;;;;7.35;1.10;;;2.10;99.90;;;;;;5052665;28;20573;-73
2022/01/21 03:01:04;;;;;;;8.90;0.95;;;2.20;99.90;;;;;;5052959;28;20081;-73
2022/01/21 03:03:30;;;;;;;8.13;1.13;;;2.20;99.90;;;;;;5034819;28;20052;-73
2022/01/21 03:05:56;;;;;;;6.05;0.93;;;2.20;99.90;;;;;;5052981;28;20611;-73
2022/01/21 03:08:22;;;;;;;4.05;0.77;;;2.20;99.90;;;;;;5052986;28;20082;-73
2022/01/21 03:10:48;;;;;;;5.30;1.05;;;2.20;99.90;;;;;;5052890;28;20390;-73
2022/01/21 03:13:14;;;;;;;6.85;1.10;;;2.20;99.90;;;;;;5036231;28;20058;-73
2022/01/21 03:15:40;;;;;;;5.65;1.40;;;2.30;99.90;;;;;;5052824;28;20127;-73
2022/01/21 03:18:06;;;;;;;8.80;1.10;;;2.40;99.90;;;;;;5050992;28;20135;-73
2022/01/21 03:20:32;;;;;;;6.90;0.90;;;2.40;99.90;;;;;;5052906;28;20047;-73
2022/01/21 03:22:59;;;;;;;6.05;1.08;;;2.40;99.90;;;;;;5070780;28;20040;-73
2022/01/21 03:25:25;;;;;;;4.85;1.40;;;2.50;99.90;;;;;;5051700;28;20064;-73
2022/01/21 03:27:50;;;;;;;8.32;1.10;;;2.50;99.90;;;;;;5052125;28;20147;-73
2022/01/21 03:30:16;;;;;;;6.22;1.67;;;2.50;99.90;;;;;;5067656;28;20045;-73
2022/01/21 03:32:41;;;;;;;8.23;1.25;;;2.50;99.90;;;;;;5052408;28;20102;-73
2022/01/21 03:35:08;;;;;;;7.57;0.77;;;2.50;99.90;;;;;;5055408;28;20087;-73
2022/01/21 03:37:33;;;;;;;7.32;1.00;;;2.50;99.90;;;;;;5056327;28;20040;-73
2022/01/21 03:39:59;;;;;;;4.63;0.85;;;2.60;99.90;;;;;;5056432;28;20495;-73
2022/01/21 03:42:24;;;;;;;9.60;1.20;;;2.60;99.90;;;;;;5056933;28;20036;-73
2022/01/21 03:44:50;;;;;;;7.60;1.42;;;2.60;99.90;;;;;;5056382;28;20115;-73
2022/01/21 03:47:15;;;;;;;8.73;1.58;;;2.60;99.90;;;;;;5056850;28;20486;-73
2022/01/21 03:49:51;;;;;;;7.30;1.20;;;2.60;99.90;;;;;;5055939;28;20068;-73
2022/01/21 03:52:17;;;;;;;6.32;0.93;;;2.60;99.90;;;;;;5053635;28;20056;-73
2022/01/21 03:54:42;;;;;;;6.05;0.90;;;2.50;99.90;;;;;;5074157;28;20040;-73
2022/01/21 03:57:08;;;;;;;5.50;1.05;;;2.50;99.90;;;;;;5056463;28;20085;-72
2022/01/21 03:59:33;;;;;;;3.75;0.70;;;2.50;99.90;;;;;;5056059;28;20036;-72
2022/01/21 04:02:00;;;;;;;7.63;1.20;;;2.40;99.90;;;;;;5056021;28;20628;-72
2022/01/21 04:04:25;;;;;;;5.53;0.80;;;2.30;99.90;;;;;;5056179;28;20414;-72
2022/01/21 04:06:51;;;;;;;4.45;0.70;;;2.30;99.90;;;;;;5056705;28;20047;-72
2022/01/21 04:09:16;;;;;;;5.35;0.70;;;2.30;99.90;;;;;;5053970;28;20047;-72
2022/01/21 04:11:42;;;;;;;5.25;0.82;;;2.20;99.90;;;;;;5074163;28;20497;-72
2022/01/21 04:14:08;;;;;;;5.07;0.70;;;2.10;99.90;;;;;;5039610;28;20044;-72
2022/01/21 04:16:34;;;;;;;3.63;0.60;;;2.10;99.90;;;;;;5056069;28;20044;-72
2022/01/21 04:18:59;;;;;;;6.20;1.35;;;2.00;99.90;;;;;;5056451;28;20067;-72
2022/01/21 04:21:25;;;;;;;5.25;0.90;;;2.00;99.90;;;;;;5055698;28;20048;-72
2022/01/21 04:23:50;;;;;;;3.65;0.75;;;2.00;99.90;;;;;;5055545;28;20036;-72
2022/01/21 04:26:16;;;;;;;5.70;1.08;;;2.10;99.90;;;;;;5038331;28;20045;-72
2022/01/21 04:28:42;;;;;;;9.15;0.90;;;2.10;99.90;;;;;;5055984;28;20080;-72
2022/01/21 04:31:07;;;;;;;7.78;1.10;;;2.10;99.90;;;;;;5056220;28;20638;-72
2022/01/21 04:33:33;;;;;;;5.28;0.98;;;2.10;99.90;;;;;;5055466;28;20044;-72
2022/01/21 04:35:58;;;;;;;4.03;0.80;;;2.10;99.90;;;;;;5054812;28;20053;-72
2022/01/21 04:38:25;;;;;;;11.02;1.63;;;2.20;99.90;;;;;;5055699;28;20094;-72
2022/01/21 04:41:02;;;;;;;9.30;1.20;;;2.20;99.90;;;;;;5052956;28;20040;-72
2022/01/21 04:48:55;;;;;;;4.05;0.70;;;2.00;99.90;;;;;;5055322;28;20054;-72
2022/01/21 04:51:27;;;;;;;5.00;0.70;;;1.90;99.90;;;;;;5055307;28;20127;-72
2022/01/21 04:53:52;;;;;;;3.70;0.88;;;1.80;99.90;;;;;;5055031;28;20032;-72
2022/01/21 04:56:18;;;;;;;5.05;1.25;;;1.80;99.90;;;;;;5055218;28;20046;-72
2022/01/21 04:58:45;;;;;;;5.38;0.80;;;1.70;99.90;;;;;;5053984;28;20067;-72
2022/01/21 05:01:11;;;;;;;5.75;0.95;;;1.70;99.90;;;;;;5038468;28;20029;-72
2022/01/21 05:03:40;;;;;;;7.50;0.82;;;1.60;99.90;;;;;;5055046;28;20036;-72
2022/01/21 05:06:06;;;;;;;6.65;1.08;;;1.50;99.90;;;;;;5055654;28;20048;-72
2022/01/21 05:11:17;;;;;;;9.88;1.08;;;1.40;99.90;;;;;;5054824;28;20160;-72
2022/01/21 05:13:50;;;;;;;6.43;0.80;;;1.30;99.90;;;;;;5054954;28;20601;-72
2022/01/21 05:18:44;;;;;;;7.47;0.95;;;1.30;99.90;;;;;;5045419;28;20752;-72
2022/01/21 05:21:10;;;;;;;7.97;1.13;;;1.30;99.90;;;;;;5054274;28;20166;-72
2022/01/21 05:23:35;;;;;;;5.43;0.85;;;1.30;99.90;;;;;;5038433;28;20036;-72
2022/01/21 05:26:01;;;;;;;9.63;1.48;;;1.30;99.90;;;;;;5054447;28;20056;-72
2022/01/21 05:28:26;;;;;;;8.48;1.20;;;1.40;99.90;;;;;;5055054;28;20041;-72
2022/01/21 05:30:52;;;;;;;10.90;1.33;;;1.40;99.90;;;;;;5072450;28;20079;-72
2022/01/21 05:33:18;;;;;;;8.23;1.33;;;1.40;99.90;;;;;;5053061;28;20052;-72
2022/01/21 05:35:43;;;;;;;8.52;1.27;;;1.50;99.90;;;;;;5053584;28;20425;-72
2022/01/21 05:38:09;;;;;;;7.32;1.33;;;1.50;99.90;;;;;;5054396;28;20123;-72
2022/01/21 05:40:34;;;;;;;13.18;1.48;;;1.50;99.90;;;;;;5054249;28;20032;-72
2022/01/21 05:43:00;;;;;;;8.23;1.30;;;1.50;99.90;;;;;;5054205;28;20036;-72
2022/01/21 05:48:10;;;;;;;10.40;1.48;;;1.60;99.90;;;;;;5050073;28;20135;-72
2022/01/21 05:50:35;;;;;;;10.43;1.48;;;1.50;99.90;;;;;;5052738;28;20123;-72
2022/01/21 05:53:07;;;;;;;8.50;1.13;;;1.50;99.90;;;;;;5051113;28;20075;-72
2022/01/21 05:55:33;;;;;;;7.50;1.20;;;1.60;99.90;;;;;;5053119;28;20051;-72
2022/01/21 05:57:58;;;;;;;8.25;1.20;;;1.60;99.90;;;;;;5054049;28;20037;-72
2022/01/21 06:00:24;;;;;;;8.10;1.42;;;1.60;99.90;;;;;;5053143;28;20044;-72
2022/01/21 06:02:50;;;;;;;9.07;1.17;;;1.70;99.90;;;;;;5053363;28;20033;-72
2022/01/21 06:05:16;;;;;;;10.00;1.75;;;1.70;99.90;;;;;;5054448;28;20474;-72
2022/01/21 06:07:42;;;;;;;6.18;1.08;;;1.80;99.90;;;;;;5036057;28;20051;-72
2022/01/21 06:10:08;;;;;;;7.85;1.45;;;1.80;99.90;;;;;;5052926;28;20070;-72
2022/01/21 06:12:34;;;;;;;9.13;1.63;;;1.90;99.90;;;;;;5052913;28;20041;-72
2022/01/21 06:15:00;;;;;;;7.22;1.33;;;2.00;99.90;;;;;;5034069;28;20094;-72
2022/01/21 06:17:25;;;;;;;6.63;1.17;;;2.10;99.90;;;;;;5049826;28;20044;-72
2022/01/21 06:19:51;;;;;;;9.57;1.20;;;2.00;99.90;;;;;;5053776;28;20035;-72
2022/01/21 06:22:17;;;;;;;8.13;1.30;;;2.10;99.90;;;;;;5053615;28;20040;-72
2022/01/21 06:24:44;;;;;;;9.10;0.90;;;2.20;99.90;;;;;;5053625;28;20101;-72
2022/01/21 06:27:10;;;;;;;8.50;1.13;;;2.30;99.90;;;;;;5071719;28;20032;-72
2022/01/21 06:29:36;;;;;;;9.05;1.27;;;2.50;99.90;;;;;;5036342;28;20776;-72
2022/01/21 06:32:01;;;;;;;8.00;1.45;;;2.50;99.90;;;;;;5050143;28;20040;-72
2022/01/21 06:34:27;;;;;;;9.77;1.80;;;2.60;99.90;;;;;;5053586;28;20040;-72
2022/01/21 06:36:53;;;;;;;4.50;1.20;;;2.60;99.90;;;;;;5052027;28;20056;-72
2022/01/21 06:39:18;;;;;;;9.77;1.52;;;2.60;99.90;;;;;;5052019;28;20036;-72
2022/01/21 06:41:46;;;;;;;7.55;1.35;;;2.60;99.90;;;;;;5052969;28;20032;-72
2022/01/21 06:44:12;;;;;;;8.25;1.30;;;2.60;99.90;;;;;;5036903;28;20037;-72
2022/01/21 06:46:38;;;;;;;8.32;1.73;;;2.60;99.90;;;;;;5070967;28;20040;-72
2022/01/21 06:49:04;;;;;;;10.02;1.65;;;2.50;99.90;;;;;;5053223;28;20047;-72
2022/01/21 06:51:29;;;;;;;10.02;1.83;;;2.40;99.90;;;;;;5051478;28;20086;-72
2022/01/21 06:53:55;;;;;;;8.57;1.38;;;2.40;99.90;;;;;;5052966;28;20505;-73
2022/01/21 06:56:21;;;;;;;7.75;1.08;;;2.30;99.90;;;;;;5052790;28;20045;-72
2022/01/21 06:58:46;;;;;;;11.88;1.38;;;2.30;99.90;;;;;;5036216;28;20040;-72
2022/01/21 07:01:12;;;;;;;11.38;1.98;;;2.30;99.90;;;;;;5052707;28;20032;-72
2022/01/21 07:03:37;;;;;;;7.93;1.60;;;2.20;99.90;;;;;;5047764;28;20044;-72
2022/01/21 07:06:03;;;;;;;8.00;1.38;;;2.20;99.90;;;;;;5034128;28;20045;-72
2022/01/21 07:08:28;;;;;;;12.98;1.65;;;2.20;99.90;;;;;;5052093;28;20056;-73
2022/01/21 07:10:54;;;;;;;10.35;1.90;;;2.10;99.90;;;;;;5052582;28;20047;-72
2022/01/21 07:13:19;;;;;;;9.95;1.33;;;2.10;99.90;;;;;;5052595;28;20079;-72
2022/01/21 07:15:45;;;;;;;7.90;1.10;;;2.10;99.90;;;;;;5052301;28;20120;-73
2022/01/21 07:18:11;;;;;;;10.68;1.50;;;2.00;99.90;;;;;;5035100;28;20803;-72
2022/01/21 07:20:36;;;;;;;9.52;1.63;;;1.90;99.90;;;;;;5052285;28;20083;-72
2022/01/21 07:23:02;;;;;;;4.65;1.30;;;1.90;99.90;;;;;;5052245;28;20060;-71
2022/01/21 07:25:28;;;;;;;10.10;1.45;;;1.90;99.90;;;;;;5052814;28;20127;-73
2022/01/21 07:27:54;;;;;;;13.05;1.65;;;1.80;99.90;;;;;;5052646;28;20486;-73
2022/01/21 07:30:19;;;;;;;7.75;1.40;;;1.80;99.90;;;;;;5042441;28;20044;-73
2022/01/21 07:32:45;;;;;;;9.18;1.20;;;1.80;99.90;;;;;;5046286;28;20044;-73
2022/01/21 07:35:11;;;;;;;9.65;1.83;;;1.80;99.90;;;;;;5052441;28;20401;-73
2022/01/21 07:37:38;;;;;;;7.50;1.40;;;1.70;99.90;;;;;;5043419;28;20048;-73
2022/01/21 07:40:05;;;;;;;12.50;1.58;;;1.70;99.90;;;;;;5050639;28;20112;-73
2022/01/21 07:42:31;;;;;;;12.15;1.80;;;1.70;99.90;;;;;;5050770;28;20706;-73
2022/01/21 07:44:56;;;;;;;9.48;1.55;;;1.70;99.90;;;;;;5069947;28;20119;-73
2022/01/21 07:47:22;;;;;;;9.55;1.40;;;1.70;99.90;;;;;;5065588;28;20041;-73
2022/01/21 07:49:48;;;;;;;10.55;1.45;;;1.70;99.90;;;;;;5046185;28;20049;-73
2022/01/21 07:52:15;;;;;;;9.73;1.58;;;1.70;99.90;;;;;;5040328;28;20520;-72
2022/01/21 07:54:41;;;;;;;12.10;2.22;;;1.70;99.90;;;;;;5043585;28;20040;-72
2022/01/21 07:57:06;;;;;;;7.80;1.20;;;1.80;99.90;;;;;;5051582;28;20055;-73
2022/01/21 07:59:32;;;;;;;7.65;1.50;;;1.80;99.90;;;;;;5051427;28;20044;-74
2022/01/21 08:01:57;;;;;;;12.93;1.50;;;1.90;99.90;;;;;;5049597;28;20032;-74
2022/01/21 08:04:23;;;;;;;14.38;1.48;;;1.90;99.90;;;;;;5048639;28;20037;-74
2022/01/21 08:06:49;;;;;;;12.50;1.50;;;2.00;99.90;;;;;;5033983;28;20073;-74
2022/01/21 08:09:14;;;;;;;10.57;1.75;;;2.00;99.90;;;;;;5047343;28;20107;-74
2022/01/21 08:11:40;;;;;;;11.98;1.90;;;2.00;99.90;;;;;;5053836;28;20058;-74
2022/01/21 08:14:06;;;;;;;9.48;1.60;;;2.10;99.90;;;;;;5059146;28;20064;-73
2022/01/21 08:16:34;;;;;;;11.30;1.67;;;2.10;99.90;;;;;;5037929;28;20067;-74
2022/01/21 08:19:00;;;;;;;7.28;1.70;;;2.20;99.90;;;;;;5046541;28;20037;-74
2022/01/21 08:21:26;;;;;;;8.85;1.40;;;2.20;99.90;;;;;;5034809;28;20072;-74
2022/01/21 08:23:54;;;;;;;10.50;2.10;;;2.30;99.90;;;;;;5049723;28;20112;-74
2022/01/21 08:26:22;;;;;;;11.00;2.13;;;2.30;99.90;;;;;;5034207;28;20044;-74
2022/01/21 08:28:49;;;;;;;11.13;2.13;;;2.30;99.90;;;;;;5048057;28;20131;-73
2022/01/21 08:31:15;;;;;;;8.40;1.25;;;2.30;99.90;;;;;;5061006;28;20147;-74
2022/01/21 08:33:41;;;;;;;14.10;1.90;;;2.40;99.90;;;;;;5052680;28;20530;-74
2022/01/21 08:36:10;;;;;;;11.52;1.90;;;2.40;99.90;;;;;;5048314;28;20517;-74
2022/01/21 08:38:35;;;;;;;12.90;1.80;;;2.40;99.90;;;;;;5048899;28;20040;-73
2022/01/21 08:41:01;;;;;;;10.60;1.67;;;2.40;99.90;;;;;;5047977;28;20885;-74
2022/01/21 08:43:27;;;;;;;9.60;1.92;;;2.40;99.90;;;;;;5043610;28;20040;-74
2022/01/21 08:45:52;;;;;;;11.80;1.80;;;2.40;99.90;;;;;;5053428;28;20072;-73
2022/01/21 08:48:18;;;;;;;13.05;1.70;;;2.40;99.90;;;;;;5065048;28;20036;-73
2022/01/21 08:50:44;;;;;;;10.20;2.38;;;2.40;99.90;;;;;;5046366;28;20040;-73
2022/01/21 08:53:36;;;;;;;11.35;2.08;;;2.50;99.90;;;;;;5043143;28;20093;-72
2022/01/21 08:55:56;;;;;;;15.25;2.83;;;2.60;99.90;;;;;;5052803;28;20497;-74
2022/01/21 08:58:22;;;;;;;8.60;1.90;;;2.70;99.90;;;;;;5037265;28;20461;-74
2022/01/21 09:00:48;;;;;;;10.32;2.90;;;2.80;99.90;;;;;;5037333;28;20060;-74
2022/01/21 09:03:13;;;;;;;12.50;3.13;;;2.80;99.90;;;;;;5037682;28;20071;-73
2022/01/21 09:05:39;;;;;;;12.77;2.58;;;2.90;99.90;;;;;;5054967;28;20052;-74
2022/01/21 09:08:04;;;;;;;12.05;2.40;;;3.00;99.90;;;;;;5052467;28;20437;-74
2022/01/21 09:10:30;;;;;;;10.68;1.63;;;3.10;99.90;;;;;;5037224;28;20037;-73
2022/01/21 09:12:55;;;;;;;12.90;2.13;;;3.20;99.90;;;;;;5033717;28;20045;-74
2022/01/21 09:15:25;;;;;;;9.27;1.90;;;3.20;99.90;;;;;;5054366;28;20036;-73
2022/01/21 09:17:55;;;;;;;9.00;1.63;;;3.30;99.90;;;;;;5054043;28;20040;-73
2022/01/21 09:20:21;;;;;;;10.57;1.65;;;3.30;99.90;;;;;;5054742;28;20036;-74
2022/01/21 09:22:46;;;;;;;12.07;1.90;;;3.40;99.90;;;;;;5054128;28;20048;-74
2022/01/21 09:25:12;;;;;;;12.30;2.30;;;3.40;99.90;;;;;;5052623;28;20055;-71
2022/01/21 09:27:37;;;;;;;12.82;2.92;;;3.50;99.90;;;;;;5055399;28;20044;-71
2022/01/21 09:30:05;;;;;;;12.32;2.08;;;3.50;99.90;;;;;;5044426;28;20032;-71
2022/01/21 09:32:32;;;;;;;10.65;2.22;;;3.50;99.90;;;;;;5054640;28;20044;-71
2022/01/21 09:34:58;;;;;;;11.20;2.22;;;3.60;99.90;;;;;;5054206;28;20041;-71
2022/01/21 09:37:24;;;;;;;16.10;2.03;;;3.60;99.90;;;;;;5072445;28;20059;-71
2022/01/21 09:39:49;;;;;;;14.07;2.60;;;3.60;99.90;;;;;;5051588;28;20040;-71
2022/01/21 09:42:15;;;;;;;10.88;1.77;;;3.70;99.90;;;;;;5043786;28;20033;-71
2022/01/21 09:44:44;;;;;;;11.88;1.90;;;3.70;99.90;;;;;;5053979;28;20082;-71
2022/01/21 09:47:11;;;;;;;9.05;1.80;;;3.80;99.90;;;;;;5047327;28;20037;-70
2022/01/21 09:49:41;;;;;;;11.65;2.45;;;3.90;99.90;;;;;;5054881;28;20044;-71
2022/01/21 09:52:09;;;;;;;14.45;2.35;;;3.90;99.90;;;;;;5037535;28;20048;-71
2022/01/21 09:54:37;;;;;;;8.77;1.77;;;3.90;99.90;;;;;;5049700;28;20094;-71
2022/01/21 09:57:05;;;;;;;13.88;2.15;;;4.00;99.90;;;;;;5043578;28;20120;-71
2022/01/21 09:59:34;;;;;;;10.85;2.30;;;4.00;99.90;;;;;;5052664;28;20036;-71
2022/01/21 10:02:02;;;;;;;11.93;2.00;;;4.00;99.90;;;;;;5054701;28;20143;-71
2022/01/21 10:04:32;;;;;;;12.32;2.33;;;4.00;99.90;;;;;;5041971;28;20037;-71
2022/01/21 10:07:00;;;;;;;12.55;2.17;;;4.00;99.90;;;;;;5048983;28;20037;-72
2022/01/21 10:09:26;;;;;;;15.20;2.50;;;4.10;99.90;;;;;;5050535;28;20044;-71
2022/01/21 10:11:54;;;;;;;19.17;2.50;;;4.10;99.90;;;;;;5053554;28;20068;-71
2022/01/21 10:14:25;;;;;;;13.52;2.13;;;4.30;99.90;;;;;;5036645;28;20473;-71
2022/01/21 10:16:52;;;;;;;14.68;1.88;;;4.40;99.90;;;;;;5049393;28;20048;-71
2022/01/21 10:19:32;;;;;;;7.28;1.92;;;4.50;99.90;;;;;;5051498;28;20044;-71
2022/01/21 10:22:08;;;;;;;11.90;1.80;;;4.60;99.90;;;;;;5032884;28;20040;-75
2022/01/21 10:24:36;;;;;;;10.07;2.20;;;4.60;99.90;;;;;;5043329;28;20037;-75
2022/01/21 10:27:02;;;;;;;17.25;2.33;;;4.70;99.90;;;;;;5029110;28;20033;-75
2022/01/21 10:29:36;;;;;;;10.35;2.55;;;4.70;99.90;;;;;;5047405;28;20048;-75
2022/01/21 10:32:02;;;;;;;10.38;2.03;;;4.70;99.90;;;;;;5052389;28;20036;-74
2022/01/21 10:34:41;;;;;;;12.18;1.85;;;4.80;99.90;;;;;;5035722;28;20041;-74
2022/01/21 10:37:34;;;;;;;12.45;2.47;;;4.80;99.90;;;;;;5050085;28;20127;-75
2022/01/21 10:40:07;;;;;;;11.77;2.08;;;5.00;99.90;;;;;;5031300;28;20041;-75
2022/01/21 10:42:32;;;;;;;13.30;2.33;;;5.10;99.90;;;;;;5029413;28;20033;-74
2022/01/21 10:44:59;;;;;;;11.15;1.98;;;5.10;99.90;;;;;;5052853;28;20040;-75
2022/01/21 10:47:48;;;;;;;8.85;1.85;;;5.20;99.90;;;;;;5031283;28;20042;-74
2022/01/21 10:50:15;;;;;;;17.17;2.10;;;5.40;99.90;;;;;;5030330;28;20044;-74
2022/01/21 10:52:53;;;;;;;10.80;1.70;;;5.40;99.90;;;;;;5038670;28;20040;-75
2022/01/21 10:55:31;;;;;;;9.88;1.60;;;5.40;99.90;;;;;;5039596;28;20072;-75
2022/01/21 10:58:11;;;;;;;8.07;1.73;;;5.60;99.90;;;;;;5047691;28;20495;-74
2022/01/21 11:00:56;;;;;;;8.50;1.67;;;5.70;99.90;;;;;;5059919;28;21664;-74
2022/01/21 11:03:22;;;;;;;9.38;2.00;;;5.80;99.90;;;;;;5052320;28;20048;-74
2022/01/21 11:05:49;;;;;;;16.00;2.17;;;5.90;99.90;;;;;;5054569;28;20094;-74
2022/01/21 11:08:15;;;;;;;14.80;2.30;;;5.90;99.90;;;;;;5049292;28;20040;-75
2022/01/21 11:10:52;;;;;;;10.90;3.15;;;5.90;99.90;;;;;;5040938;28;20052;-74
2022/01/21 11:13:20;;;;;;;8.73;2.08;;;5.90;99.90;;;;;;5049321;28;20394;-75
2022/01/21 11:16:03;;;;;;;14.15;2.00;;;6.00;99.90;;;;;;5056487;28;20028;-75
2022/01/21 11:18:30;;;;;;;9.98;2.38;;;6.00;99.90;;;;;;5054889;28;20078;-74
2022/01/21 11:21:07;;;;;;;14.05;2.28;;;6.00;99.90;;;;;;5054616;28;20363;-74
2022/01/21 11:23:34;;;;;;;12.35;2.42;;;6.10;99.90;;;;;;5044793;28;20037;-74
2022/01/21 11:26:03;;;;;;;11.68;2.30;;;6.20;99.90;;;;;;5035691;28;20044;-74
2022/01/21 11:28:49;;;;;;;13.88;1.98;;;6.20;99.90;;;;;;5041605;28;20052;-75
2022/01/21 11:31:19;;;;;;;8.90;2.40;;;6.30;99.90;;;;;;5041967;28;20040;-75
2022/01/21 11:33:45;;;;;;;9.82;2.00;;;6.40;99.90;;;;;;5041650;28;20036;-75
2022/01/21 11:36:11;;;;;;;14.43;2.78;;;6.40;99.90;;;;;;5035831;28;20049;-74
2022/01/21 11:38:39;;;;;;;8.20;1.60;;;6.40;99.90;;;;;;5036139;28;20086;-75
2022/01/21 11:41:07;;;;;;;9.20;2.17;;;6.40;99.90;;;;;;5025399;28;20113;-74
2022/01/21 11:43:34;;;;;;;9.27;2.17;;;6.50;99.90;;;;;;5033707;28;20109;-75
2022/01/21 11:46:17;;;;;;;13.93;2.83;;;6.50;99.90;;;;;;5037924;28;20136;-74
2022/01/21 11:48:57;;;;;;;16.45;2.72;;;6.60;99.90;;;;;;5036601;28;20129;-75
2022/01/21 11:51:31;;;;;;;12.10;2.40;;;6.60;99.90;;;;;;5035672;23;20563;-73
2022/01/21 11:54:14;;;;;;;14.00;2.85;;;6.60;99.90;;;;;;5029466;28;20040;-73
2022/01/21 11:56:47;;;;;;;15.35;2.42;;;6.70;99.90;;;;;;5028181;28;20115;-73
2022/01/21 11:59:39;;;;;;;15.07;2.47;;;6.80;99.90;;;;;;5035291;28;20083;-73
2022/01/21 12:02:23;;;;;;;12.10;2.75;;;6.70;99.90;;;;;;5025423;28;20037;-73
2022/01/21 12:04:53;;;;;;;15.57;2.25;;;6.80;99.90;;;;;;5033244;28;20107;-73
2022/01/21 12:07:40;;;;;;;16.08;2.55;;;6.80;99.90;;;;;;5042227;28;20037;-73
2022/01/21 12:10:11;;;;;;;14.27;2.10;;;6.80;99.90;;;;;;5032807;28;20075;-73
2022/01/21 12:13:07;;;;;;;17.47;2.03;;;6.80;99.90;;;;;;5019520;28;20032;-73
2022/01/21 12:15:51;;;;;;;11.02;2.47;;;6.90;99.90;;;;;;5026714;28;20333;-72
2022/01/21 12:19:08;;;;;;;11.55;2.42;;;7.00;99.90;;;;;;5034679;28;20049;-73
2022/01/21 12:21:37;;;;;;;11.13;1.52;;;7.00;99.90;;;;;;5028931;28;20088;-73
2022/01/21 12:24:03;;;;;;;12.82;1.65;;;7.00;99.90;;;;;;5029612;28;20401;-72
2022/01/21 12:26:32;;;;;;;11.90;2.20;;;7.10;99.90;;;;;;5040968;28;20040;-73
2022/01/21 12:28:58;;;;;;;9.48;1.92;;;7.10;99.90;;;;;;5029491;28;20729;-72
2022/01/21 12:31:31;;;;;;;12.73;2.25;;;7.10;99.90;;;;;;5035989;28;20072;-72
2022/01/21 12:36:26;;;;;;;9.27;1.75;;;7.20;99.90;;;;;;5036888;28;20404;-73
2022/01/21 12:41:17;;;;;;;8.60;1.50;;;7.20;99.90;;;;;;5032439;28;20042;-73
2022/01/21 12:43:48;;;;;;;8.52;1.33;;;7.30;99.90;;;;;;5025858;28;20044;-74
2022/01/21 12:46:38;;;;;;;10.45;1.45;;;7.30;99.90;;;;;;5011088;28;20037;-73
2022/01/21 12:49:38;;;;;;;6.38;1.33;;;7.40;99.90;;;;;;5018507;28;20503;-73
2022/01/21 12:57:28;;;;;;;8.20;1.75;;;7.30;99.90;;;;;;5047143;28;20075;-72
2022/01/21 12:59:56;;;;;;;9.63;1.50;;;7.20;99.90;;;;;;5035149;28;20385;-73
2022/01/21 13:02:24;;;;;;;12.85;2.13;;;7.30;99.90;;;;;;5039635;28;20075;-73
2022/01/21 13:05:13;;;;;;;12.68;2.15;;;7.30;99.90;;;;;;5030888;28;20045;-73
2022/01/21 13:07:50;;;;;;;7.47;2.10;;;7.30;99.90;;;;;;5034365;28;20044;-73
2022/01/21 13:10:18;;;;;;;9.10;1.75;;;7.30;99.90;;;;;;5033309;28;20065;-73
2022/01/21 13:15:41;;;;;;;10.13;1.80;;;7.30;99.90;;;;;;5030323;28;20041;-73
2022/01/21 13:18:23;;;;;;;10.10;1.85;;;7.40;99.90;;;;;;5045583;28;20044;-72
2022/01/21 13:20:51;;;;;;;13.13;2.10;;;7.30;99.90;;;;;;5052281;28;20044;-72
2022/01/21 13:23:56;;;;;;;7.80;1.80;;;7.30;99.90;;;;;;5025586;28;20032;-72
2022/01/21 13:26:35;;;;;;;10.68;1.70;;;7.30;99.90;;;;;;5047834;28;20134;-72
2022/01/21 13:29:13;;;;;;;12.77;2.78;;;7.40;99.90;;;;;;5049939;28;20543;-72
2022/01/21 13:31:48;;;;;;;9.25;1.70;;;7.30;99.90;;;;;;5051110;28;20032;-72
2022/01/21 13:34:28;;;;;;;10.25;1.83;;;7.50;99.90;;;;;;5041036;28;20048;-72
2022/01/21 13:37:02;;;;;;;11.70;2.53;;;7.50;99.90;;;;;;5068717;28;20045;-72
2022/01/21 13:39:37;;;;;;;8.75;1.50;;;7.40;99.90;;;;;;5054058;28;20436;-72
2022/01/21 13:42:10;;;;;;;8.18;1.65;;;7.50;99.90;;;;;;5045458;28;20040;-72
2022/01/21 13:44:41;;;;;;;9.77;2.03;;;7.50;99.90;;;;;;5026703;28;20029;-72
2022/01/21 13:47:24;;;;;;;11.73;2.03;;;7.50;99.90;;;;;;5048258;28;20040;-72
2022/01/21 13:49:50;;;;;;;14.45;2.40;;;7.40;99.90;;;;;;5059862;28;20043;-72
2022/01/21 13:52:16;;;;;;;9.05;2.13;;;7.40;99.90;;;;;;5054577;28;20497;-72
2022/01/21 13:54:49;;;;;;;7.07;1.52;;;7.30;99.90;;;;;;5052985;28;20053;-72
2022/01/21 13:57:15;;;;;;;15.32;2.65;;;7.30;99.90;;;;;;5034389;28;20068;-72
2022/01/21 13:59:42;;;;;;;12.75;2.53;;;7.40;99.90;;;;;;5054632;28;20127;-72
2022/01/21 14:02:11;;;;;;;11.68;2.13;;;7.40;99.90;;;;;;5051272;28;20043;-72
2022/01/21 14:04:36;;;;;;;12.10;1.88;;;7.40;99.90;;;;;;5054501;28;20035;-72